Flight Track Log - Related Links

Times and Time Zones

All times are in EDT time to prevent confusion due to time zone crossing. See the N16112 flight status page for this flight to view local times or setup timezone preferences in your user account.

Time Position Orientation Groundspeed Altitude Reporting Facility
EDT Latitude Longitude Course Direction KTS MPH feet Rate Location/Type
Thu 08:17:42 PM 29.9572 -95.3392 110° East 192 221 700  Level Houston Center
Thu 08:19:02 PM 29.9336 -95.2650 110° East 223 257 3,100 1,872 Climbing Houston Center
Thu 08:20:03 PM 29.9428 -95.1842 83° East 271 312 5,100 2,311 Climbing Houston Center
Thu 08:21:04 PM 29.9347 -95.0961 96° East 267 307 7,800 2,341 Climbing Houston Center
Thu 08:22:06 PM 29.9281 -95.0053 95° East 280 322 9,900 1,422 Climbing Houston Center
Thu 08:23:19 PM 29.9172 -94.8875 96° East 314 361 11,000 889 Climbing Houston Center
Thu 08:24:21 PM 29.9061 -94.7700 96° East 361 415 11,900 1,016 Climbing Houston Center
Thu 08:25:23 PM 29.8953 -94.6461 96° East 381 438 13,100 1,210 Climbing Houston Center
Thu 08:26:25 PM 29.8828 -94.5186 96° East 395 455 14,400 1,258 Climbing Houston Center
Thu 08:27:27 PM 29.8700 -94.3925 97° East 397 457 15,700 1,403 Climbing Houston Center
Thu 08:28:29 PM 29.8603 -94.2656 95° East 398 458 17,300 1,403 Climbing Houston Center
Thu 08:29:31 PM 29.8558 -94.1314 92° East 389 448 18,600 1,161 Climbing Houston Center
Thu 08:30:33 PM 29.8575 -94.0075 89° East 389 448 19,700 1,258 Climbing Houston Center
Thu 08:31:35 PM 29.8744 -93.8567 83° East 398 458 21,200 1,161 Climbing Houston Center
Thu 08:32:37 PM 29.8867 -93.7283 84° East 403 464 22,100 774 Climbing Houston Center
Thu 08:33:39 PM 29.9014 -93.5964 83° East 414 476 22,800 726 Climbing Houston Center
Thu 08:34:41 PM 29.9147 -93.4597 84° East 430 495 23,600 919 Climbing Houston Center
Thu 08:35:43 PM 29.9281 -93.3228 84° East 433 498 24,700 1,403 Climbing Houston Center
Thu 08:36:45 PM 29.9447 -93.1617 83° East 428 493 26,500 1,632 Climbing Houston Center
Thu 08:37:48 PM 29.9578 -93.0317 83° East 415 478 28,100 1,355 Climbing Houston Center
Thu 08:38:49 PM 29.9711 -92.9050 83° East 403 464 29,300 1,073 Climbing Houston Center
Thu 08:39:51 PM 29.9817 -92.7767 85° East 405 466 30,300 968 Climbing Houston Center
Thu 08:40:53 PM 30.0142 -92.6511 73° East 410 472 31,300 919 Climbing Houston Center
Thu 08:41:55 PM 30.0567 -92.4967 72° East 419 482 32,200 871 Climbing Houston Center
Thu 08:42:57 PM 30.0928 -92.3678 72° East 425 489 33,100 871 Climbing Houston Center
Thu 08:43:59 PM 30.1283 -92.2372 72° East 427 491 34,000 871 Climbing Houston Center
Thu 08:45:01 PM 30.1631 -92.1094 73° East 420 483 34,900 484 Climbing Houston Center
Thu 08:46:03 PM 30.1906 -91.9742 77° East 429 494 35,000 48 Climbing Houston Center
Thu 08:47:05 PM 30.2133 -91.8247 80° East 453 521 35,000  Level Houston Center
Thu 08:48:07 PM 30.2367 -91.6811 79° East 470 541 35,000  Level Houston Center
Thu 08:49:09 PM 30.2669 -91.4953 79° East 488 562 35,000  Level Houston Center
Thu 08:50:10 PM 30.2919 -91.3356 80° East 504 580 35,000  Level Houston Center
Thu 08:51:12 PM 30.3206 -91.1744 78° East 512 589 35,000  Level Houston Center
Thu 08:52:14 PM 30.3647 -91.0183 72° East 511 588 35,000  Level Houston Center
Thu 08:53:16 PM 30.4114 -90.8619 71° East 513 590 35,000  Level Houston Center
Thu 08:54:18 PM 30.4564 -90.7058 71° East 512 589 35,000  Level Houston Center
Thu 08:55:19 PM 30.5011 -90.5492 72° East 512 589 35,000  Level Houston Center
Thu 08:56:21 PM 30.5553 -90.3603 72° East 513 590 35,000  Level Houston Center
Thu 08:57:23 PM 30.5994 -90.2022 72° East 513 590 35,000  Level Houston Center
Thu 08:58:25 PM 30.6439 -90.0431 72° East 514 592 35,000  Level Houston Center
Thu 08:59:27 PM 30.6889 -89.8842 72° East 513 590 35,000  Level Houston Center
Thu 09:00:28 PM 30.7342 -89.7250 72° East 513 590 35,000  Level Houston Center
Thu 09:01:30 PM 30.7775 -89.5661 72° East 513 590 35,000  Level Houston Center
Thu 09:02:32 PM 30.8214 -89.4064 72° East 515 593 35,000  Level Houston Center
Thu 09:03:34 PM 30.8653 -89.2481 72° East 514 592 35,000  Level Houston Center
Thu 09:04:35 PM 30.9067 -89.0883 73° East 514 592 35,000  Level Houston Center
Thu 09:05:37 PM 30.9553 -88.9000 73° East 509 586 35,000  Level Houston Center
Thu 09:06:39 PM 30.9986 -88.7431 72° East 508 585 35,000  Level Houston Center
Thu 09:07:40 PM 31.0428 -88.5839 72° East 513 590 35,000  Level Houston Center
Thu 09:08:42 PM 31.0839 -88.4244 73° East 515 593 35,000  Level Houston Center
Thu 09:09:44 PM 31.1261 -88.2653 73° East 514 592 35,000  Level Houston Center
Thu 09:10:45 PM 31.1703 -88.1075 72° East 517 595 35,000  Level Houston Center
Thu 09:11:47 PM 31.2114 -87.9483 73° East 512 589 35,000  Level Houston Center
Thu 09:12:48 PM 31.2575 -87.7753 73° East 516 594 35,000  Level Houston Center
Thu 09:13:50 PM 31.2983 -87.6164 73° East 514 592 35,000  Level Houston Center
Thu 09:14:51 PM 31.3781 -87.4844 55° Northeast 501 577 35,000  Level Houston Center
Thu 09:15:53 PM 31.4875 -87.3433 48° Northeast 491 565 35,000  Level Atlanta Center
Thu 09:16:53 PM 31.5764 -87.2197 50° Northeast 491 565 35,000  Level Atlanta Center
Thu 09:17:53 PM 31.6650 -87.1008 49° Northeast 486 559 35,000  Level Atlanta Center
Thu 09:18:53 PM 31.7428 -86.9914 50° Northeast 486 559 35,000  Level Atlanta Center
Thu 09:19:53 PM 31.8311 -86.8669 50° Northeast 491 565 35,000  Level Atlanta Center
Thu 09:20:53 PM 31.9194 -86.7425 50° Northeast 491 565 35,000  Level Atlanta Center
Thu 09:21:53 PM 32.0225 -86.6086 48° Northeast 500 575 35,000  Level Atlanta Center
Thu 09:22:53 PM 32.1128 -86.4861 49° Northeast 500 575 35,000  Level Atlanta Center
Thu 09:23:53 PM 32.1964 -86.3608 52° Northeast 494 568 35,000  Level Atlanta Center
Thu 09:24:53 PM 32.2825 -86.2303 52° Northeast 494 568 35,000  Level Atlanta Center
Thu 09:25:53 PM 32.3703 -86.1022 51° Northeast 494 568 35,000  Level Atlanta Center
Thu 09:26:53 PM 32.4558 -85.9711 52° Northeast 499 574 35,000  Level Atlanta Center
Thu 09:27:53 PM 32.5453 -85.8425 50° Northeast 499 574 35,000  Level Atlanta Center
Thu 09:28:53 PM 32.6328 -85.7111 52° Northeast 505 581 35,000  Level Atlanta Center
Thu 09:29:53 PM 32.7181 -85.5794 52° Northeast 505 581 35,000  Level Atlanta Center
Thu 09:30:53 PM 32.8050 -85.4525 51° Northeast 505 581 35,000  Level Atlanta Center
Thu 09:31:53 PM 32.8900 -85.3228 52° Northeast 505 581 35,000  Level Atlanta Center
Thu 09:32:53 PM 32.9769 -85.1928 51° Northeast 505 581 35,000  Level Atlanta Center
Thu 09:33:53 PM 33.0617 -85.0625 52° Northeast 500 575 35,000  Level Atlanta Center
Thu 09:34:53 PM 33.1481 -84.9319 52° Northeast 506 582 35,000  Level Atlanta Center
Thu 09:35:53 PM 33.2325 -84.8011 52° Northeast 506 582 35,000  Level Atlanta Center
Thu 09:36:53 PM 33.3189 -84.6678 52° Northeast 511 588 35,000  Level Atlanta Center
Thu 09:37:53 PM 33.4050 -84.5342 52° Northeast 511 588 35,000  Level Atlanta Center
Thu 09:38:53 PM 33.4889 -84.4025 53° Northeast 511 588 35,000  Level Atlanta Center
Thu 09:39:53 PM 33.5769 -84.2683 52° Northeast 511 588 35,000  Level Atlanta Center
Thu 09:40:53 PM 33.6628 -84.1336 53° Northeast 511 588 35,000  Level Atlanta Center
Thu 09:41:53 PM 33.7483 -83.9989 53° Northeast 511 588 35,000  Level Atlanta Center
Thu 09:42:53 PM 33.8358 -83.8611 53° Northeast 511 588 35,000  Level Atlanta Center
Thu 09:43:53 PM 33.9233 -83.7258 52° Northeast 511 588 35,000  Level Atlanta Center
Thu 09:44:53 PM 34.0083 -83.5903 53° Northeast 511 588 35,000  Level Atlanta Center
Thu 09:45:53 PM 34.0956 -83.4544 52° Northeast 511 588 35,000  Level Atlanta Center
Thu 09:46:53 PM 34.1803 -83.3181 53° Northeast 511 588 35,000  Level Atlanta Center
Thu 09:47:53 PM 34.2631 -83.1842 53° Northeast 505 581 35,000  Level Atlanta Center
Thu 09:48:53 PM 34.3497 -83.0500 52° Northeast 505 581 35,000  Level Atlanta Center
Thu 09:49:53 PM 34.4258 -82.9283 53° Northeast 510 587 35,000  Level Atlanta Center
Thu 09:50:53 PM 34.5039 -82.7886 56° Northeast 505 581 35,000  Level Atlanta Center
Thu 09:51:53 PM 34.5881 -82.6586 52° Northeast 500 575 35,000  Level Atlanta Center
Thu 09:52:53 PM 34.6800 -82.5131 52° Northeast 490 564 35,000  Level Atlanta Center
Thu 09:53:53 PM 34.7597 -82.3778 54° Northeast 490 564 35,000  Level Atlanta Center
Thu 09:54:53 PM 34.8414 -82.2444 53° Northeast 485 558 35,000  Level Atlanta Center
Thu 09:55:53 PM 34.9167 -82.1289 52° Northeast 485 558 35,000  Level Atlanta Center
Thu 09:56:53 PM 34.9981 -81.9900 54° Northeast 490 564 35,000  Level Atlanta Center
Thu 09:57:53 PM 35.0831 -81.8381 56° Northeast 490 564 35,000  Level Atlanta Center
Thu 09:58:53 PM 35.1617 -81.6914 57° Northeast 500 575 35,000  Level Atlanta Center
Thu 09:59:53 PM 35.2361 -81.5494 57° Northeast 505 581 35,000  Level Atlanta Center
Thu 10:00:53 PM 35.3103 -81.4044 58° Northeast 505 581 35,000  Level Atlanta Center
Thu 10:01:53 PM 35.3864 -81.2594 57° Northeast 505 581 35,000 -300 Level Atlanta Center
Thu 10:02:53 PM 35.4600 -81.1117 59° Northeast 505 581 34,400 -900 Descending Atlanta Center
Thu 10:03:53 PM 35.5361 -80.9711 56° Northeast 505 581 33,200 -700 Descending Atlanta Center
Thu 10:04:53 PM 35.6094 -80.8278 58° Northeast 500 575 33,000 -100 Descending Atlanta Center
Thu 10:05:53 PM 35.6831 -80.6869 57° Northeast 494 568 33,000  Level Atlanta Center
Thu 10:06:53 PM 35.7542 -80.5458 58° Northeast 488 562 33,000  Level Atlanta Center
Thu 10:09:02 PM 35.9139 -80.2314 58° Northeast 481 554 33,000  Level Washington Center
Thu 10:10:02 PM 35.9881 -80.0894 57° Northeast 487 560 33,000  Level Washington Center
Thu 10:11:02 PM 36.0642 -79.9525 55° Northeast 482 555 33,000  Level Washington Center
Thu 10:12:03 PM 36.1419 -79.8153 55° Northeast 482 555 33,000  Level Washington Center
Thu 10:13:03 PM 36.2200 -79.6728 56° Northeast 493 567 33,000  Level Washington Center
Thu 10:14:03 PM 36.2911 -79.5450 55° Northeast 499 574 33,000 -400 Level Washington Center
Thu 10:15:03 PM 36.3797 -79.3869 55° Northeast 493 567 32,200 -1,311 Descending Washington Center
Thu 10:16:02 PM 36.4592 -79.2436 55° Northeast 499 574 30,400 -1,800 Descending Washington Center
Thu 10:17:03 PM 36.5408 -79.1003 55° Northeast 504 580 28,600 -1,835 Descending Washington Center
Thu 10:18:03 PM 36.6219 -78.9564 55° Northeast 504 580 26,700 -1,700 Descending Washington Center
Thu 10:19:03 PM 36.6947 -78.8194 56° Northeast 504 580 25,200 -850 Descending Washington Center
Thu 10:20:03 PM 36.7714 -78.6800 56° Northeast 504 580 25,000 -600 Descending Washington Center
Thu 10:21:03 PM 36.8567 -78.5253 55° Northeast 498 573 24,000 -1,250 Descending Washington Center
Thu 10:22:03 PM 36.9331 -78.3853 56° Northeast 493 567 22,500 -1,008 Descending Washington Center
Thu 10:23:02 PM 37.0069 -78.2475 56° Northeast 488 562 22,000 -252 Descending Washington Center
Thu 10:24:02 PM 37.1094 -78.1519 37° Northeast 454 522 22,000  Level Washington Center
Thu 10:25:02 PM 37.2175 -78.0694 31° Northeast 449 517 22,000  Level Washington Center
Thu 10:26:02 PM 37.3256 -77.9867 31° Northeast 454 522 22,000  Level Washington Center
Thu 10:27:03 PM 37.4356 -77.9014 32° Northeast 460 529 22,000 -694 Level Washington Center
Thu 10:28:03 PM 37.5478 -77.8183 30° Northeast 465 535 20,600 -1,650 Descending Washington Center
Thu 10:29:03 PM 37.6617 -77.7508 25° Northeast 451 519 18,700 -1,750 Descending Washington Center
Thu 10:30:03 PM 37.7711 -77.6883 24° Northeast 440 506 17,100 -1,850 Descending Washington Center
Thu 10:31:03 PM 37.8744 -77.6253 26° Northeast 420 483 15,000 -1,966 Descending Washington Center
Thu 10:32:02 PM 37.9756 -77.5647 25° Northeast 403 464 13,200 -1,650 Descending Washington Center
Thu 10:33:03 PM 38.0639 -77.5197 22° Northeast 397 457 11,700 -1,488 Descending Washington Center
Thu 10:34:03 PM 38.1544 -77.4639 26° Northeast 376 433 10,200 -850 Descending Washington Center
Thu 10:35:03 PM 38.2469 -77.4239 19° North 356 410 10,000 -101 Descending Washington Center
Thu 10:36:02 PM 38.3408 -77.4131 North 342 394 10,000  Level Washington Center
Thu 10:37:03 PM 38.4369 -77.3994 North 337 388 10,000 -496 Level Washington Center
Thu 10:38:03 PM 38.5164 -77.3908 North 312 359 9,000 -1,412 Descending Washington Center
Thu 10:39:02 PM 38.5894 -77.3819 North 285 328 7,200 -1,765 Descending Washington Center
Thu 10:40:02 PM 38.6625 -77.3731 North 264 304 5,500 -1,677 Descending Washington Center
Thu 10:40:35 PM 38.7000 -77.3667 North 261 300 4,600 -966 Descending Potomac TRACON
Thu 10:41:29 PM 38.7667 -77.3667 360° North 264 304 4,100 -300 Descending Potomac TRACON
Thu 10:42:35 PM 38.8500 -77.3500 North 267 307 4,000 -273 Descending Potomac TRACON
Thu 10:43:41 PM 38.9333 -77.3500 360° North 258 297 3,500 -472 Descending Potomac TRACON
Thu 10:44:42 PM 39.0000 -77.3500 360° North 231 266 3,000 -198 Descending Potomac TRACON
Thu 10:45:42 PM 39.0500 -77.3500 360° North 210 242 3,100 100 Climbing Potomac TRACON

Login

Don't have an account? Register now (free) for customized features, flight alerts, and more!